Time;durP1;ratioP1;P1;durP2;ratioP2;P2;SDS_P1;SDS_P2;PMS_P1;PMS_P2;Temp;Humidity;BMP_temperature;BMP_pressure;BME280_temperature;BME280_humidity;BME280_pressure;Samples;Min_cycle;Max_cycle;Signal;HPM_P1;HPM_P2
2021/11/11 00:00:18;;;;;;;;;72.00;55.75;;;;;9.05;61.86;101897.38;2089453;28;48084;-57
2021/11/11 00:01:19;;;;;;;;;78.75;62.75;;;;;9.03;61.88;101889.44;2083973;28;48276;-57
2021/11/11 00:02:19;;;;;;;;;66.50;53.25;;;;;9.04;61.79;101892.97;2089147;28;48223;-58
2021/11/11 00:03:20;;;;;;;;;70.25;57.00;;;;;9.04;61.83;101885.91;2087212;28;48333;-58
2021/11/11 00:04:21;;;;;;;;;80.50;62.50;;;;;9.04;62.05;101885.00;2083427;28;47113;-58
2021/11/11 00:05:22;;;;;;;;;76.25;61.75;;;;;9.04;61.75;101882.38;2090168;28;48351;-58
2021/11/11 00:06:23;;;;;;;;;73.25;58.25;;;;;9.03;61.89;101885.91;2087897;28;47431;-57
2021/11/11 00:07:23;;;;;;;;;73.25;57.50;;;;;9.04;61.95;101885.00;2090842;28;47601;-57
2021/11/11 00:08:24;;;;;;;;;74.00;57.25;;;;;9.03;62.06;101883.25;2081929;28;47028;-58
2021/11/11 00:09:25;;;;;;;;;74.50;57.75;;;;;9.02;61.70;101879.72;2082902;28;47263;-58
2021/11/11 00:10:26;;;;;;;;;68.75;53.00;;;;;9.03;61.95;101881.47;2078863;28;47326;-57
2021/11/11 00:11:27;;;;;;;;;69.60;56.20;;;;;9.04;61.61;101877.06;2079149;28;48197;-57
2021/11/11 00:12:31;;;;;;;;;58.75;47.50;;;;;9.04;62.14;101882.38;2089512;28;47286;-58
2021/11/11 00:13:32;;;;;;;;;68.00;53.60;;;;;9.04;61.98;101883.25;2090387;28;48523;-58
2021/11/11 00:14:32;;;;;;;;;63.00;51.50;;;;;9.05;62.07;101884.13;2089065;28;47229;-56
2021/11/11 00:15:33;;;;;;;;;64.75;52.25;;;;;9.05;61.96;101884.13;2092031;28;47265;-58
2021/11/11 00:16:33;;;;;;;;;66.75;53.50;;;;;9.07;61.94;101890.31;2086362;28;47450;-57
2021/11/11 00:17:34;;;;;;;;;67.75;53.25;;;;;9.07;61.88;101890.31;2091123;28;47178;-56
2021/11/11 00:18:35;;;;;;;;;69.40;55.80;;;;;9.07;61.89;101890.31;2088246;28;47152;-57
2021/11/11 00:19:35;;;;;;;;;69.00;55.00;;;;;9.07;61.92;101890.31;2092133;28;48297;-57
2021/11/11 00:20:36;;;;;;;;;69.00;56.50;;;;;9.09;62.09;101891.19;2088423;28;48195;-56
2021/11/11 00:21:37;;;;;;;;;67.00;55.50;;;;;9.08;61.79;101892.97;2085667;28;47135;-57
2021/11/11 00:22:39;;;;;;;;;70.00;56.50;;;;;9.09;61.96;101889.44;2089021;28;47081;-57
2021/11/11 00:23:39;;;;;;;;;66.80;51.80;;;;;9.09;61.97;101889.44;2090461;28;48667;-56
2021/11/11 00:24:40;;;;;;;;;68.25;54.00;;;;;9.10;61.93;101891.19;2087658;28;47217;-58
2021/11/11 00:25:40;;;;;;;;;72.75;56.50;;;;;9.10;61.99;101883.25;2089148;28;47328;-57
2021/11/11 00:26:41;;;;;;;;;71.25;55.25;;;;;9.10;61.88;101895.59;2086555;28;47537;-57
2021/11/11 00:27:42;;;;;;;;;66.60;53.40;;;;;9.10;61.73;101892.97;2092239;28;48151;-57
2021/11/11 00:28:43;;;;;;;;;70.50;57.00;;;;;9.10;62.06;101888.53;2089898;28;45361;-56
2021/11/11 00:29:44;;;;;;;;;70.00;57.00;;;;;9.09;61.58;101886.78;2091878;28;47124;-57
2021/11/11 00:30:45;;;;;;;;;69.25;56.00;;;;;9.09;61.67;101889.44;2089872;28;46237;-57
2021/11/11 00:31:45;;;;;;;;;71.50;57.25;;;;;9.09;61.59;101880.59;2087240;28;47162;-58
2021/11/11 00:32:46;;;;;;;;;71.75;57.75;;;;;9.10;61.80;101879.72;2090232;28;47389;-57
2021/11/11 00:33:47;;;;;;;;;72.20;57.20;;;;;9.11;61.61;101873.53;2082780;28;48388;-56
2021/11/11 00:34:51;;;;;;;;;72.25;58.50;;;;;9.10;61.49;101877.97;2080390;28;47216;-57
2021/11/11 00:35:52;;;;;;;;;74.75;59.25;;;;;9.11;61.45;101873.53;2082416;28;47210;-57
2021/11/11 00:36:53;;;;;;;;;77.50;64.50;;;;;9.10;61.44;101870.00;2088760;28;47266;-58
2021/11/11 00:37:57;;;;;;;;;73.25;58.25;;;;;9.10;61.56;101864.72;2089672;28;48870;-58
2021/11/11 00:38:58;;;;;;;;;73.00;58.25;;;;;9.10;61.65;101866.47;2091710;28;47681;-57
2021/11/11 00:39:59;;;;;;;;;75.75;61.75;;;;;9.10;61.59;101864.72;2081744;28;47459;-57
2021/11/11 00:40:59;;;;;;;;;70.25;57.75;;;;;9.09;61.47;101862.94;2079081;28;47617;-57
2021/11/11 00:42:00;;;;;;;;;77.25;59.50;;;;;9.09;61.45;101865.59;2087834;28;46295;-57
2021/11/11 00:43:01;;;;;;;;;78.75;63.75;;;;;9.09;61.28;101864.72;2090782;28;47967;-58
2021/11/11 00:44:02;;;;;;;;;70.40;55.40;;;;;9.08;61.37;101857.66;2088415;28;48479;-58
2021/11/11 00:45:04;;;;;;;;;69.75;56.50;;;;;9.06;61.52;101855.00;2087371;28;47010;-57
2021/11/11 00:46:04;;;;;;;;;69.40;56.40;;;;;9.07;61.34;101859.41;2090077;28;48516;-57
2021/11/11 00:47:05;;;;;;;;;71.75;56.50;;;;;9.06;61.52;101865.59;2088963;28;47271;-57
2021/11/11 00:48:06;;;;;;;;;64.50;52.50;;;;;9.04;61.53;101859.41;2084489;28;47062;-58
2021/11/11 00:49:07;;;;;;;;;70.50;58.00;;;;;9.04;61.50;101862.06;2081944;28;47161;-57
2021/11/11 00:50:08;;;;;;;;;68.75;55.25;;;;;9.04;61.46;101856.78;2081167;28;47325;-57
2021/11/11 00:51:09;;;;;;;;;70.00;57.50;;;;;9.03;61.55;101852.34;2090133;28;47315;-58
2021/11/11 00:52:11;;;;;;;;;67.25;53.75;;;;;9.03;61.54;101851.47;2077257;28;47232;-58
2021/11/11 00:53:11;;;;;;;;;72.00;57.75;;;;;9.02;61.73;101847.94;2081872;28;47744;-57
2021/11/11 00:54:12;;;;;;;;;73.50;58.00;;;;;9.02;61.63;101852.31;2090297;28;47094;-58
2021/11/11 00:55:12;;;;;;;;;72.00;57.00;;;;;9.01;61.67;101853.22;2086021;28;46534;-57
2021/11/11 00:56:13;;;;;;;;;70.00;56.50;;;;;9.02;61.74;101857.63;2079873;28;47227;-58
2021/11/11 00:57:14;;;;;;;;;74.50;59.50;;;;;9.00;61.66;101852.31;2092280;28;47198;-59
2021/11/11 00:58:14;;;;;;;;;72.50;57.75;;;;;9.01;61.69;101858.50;2090269;28;45353;-58
2021/11/11 00:59:15;;;;;;;;;71.50;56.00;;;;;9.00;61.51;101856.72;2091666;28;47310;-58
2021/11/11 01:00:17;;;;;;;;;74.50;59.25;;;;;8.99;61.46;101854.97;2089649;28;47085;-58
2021/11/11 01:01:18;;;;;;;;;76.25;61.50;;;;;8.98;61.36;101855.84;2081376;28;46864;-59
2021/11/11 01:02:19;;;;;;;;;63.75;51.75;;;;;8.97;61.46;101852.31;2081580;28;46536;-58
2021/11/11 01:03:24;;;;;;;;;71.25;58.00;;;;;8.96;61.44;101854.97;2088831;28;46869;-57
2021/11/11 01:04:25;;;;;;;;;74.50;60.00;;;;;8.96;61.69;101853.19;2088208;28;47141;-58
2021/11/11 01:05:25;;;;;;;;;72.00;57.25;;;;;8.98;61.47;101850.56;2084077;28;46830;-58
2021/11/11 01:06:27;;;;;;;;;74.25;58.75;;;;;8.97;61.46;101854.97;2086880;28;46909;-57
2021/11/11 01:07:28;;;;;;;;;73.75;59.75;;;;;8.98;61.49;101858.50;2082121;28;47239;-59
2021/11/11 01:08:29;;;;;;;;;70.50;56.75;;;;;8.97;61.52;101860.25;2079885;28;48574;-58
2021/11/11 01:09:30;;;;;;;;;75.75;60.75;;;;;8.98;61.35;101859.38;2091730;28;46571;-55
2021/11/11 01:10:30;;;;;;;;;72.50;57.75;;;;;8.99;61.24;101857.63;2088566;28;47566;-57
2021/11/11 01:11:31;;;;;;;;;71.50;58.00;;;;;8.99;61.10;101852.31;2088466;28;47275;-57
2021/11/11 01:12:31;;;;;;;;;76.00;60.00;;;;;8.99;61.01;101854.97;2089461;28;47101;-57
2021/11/11 01:13:33;;;;;;;;;74.25;61.00;;;;;8.99;61.17;101853.22;2072409;28;47259;-58
2021/11/11 01:14:34;;;;;;;;;78.75;60.00;;;;;9.00;61.16;101849.69;2073221;28;48385;-56
2021/11/11 01:15:35;;;;;;;;;74.00;59.25;;;;;8.98;61.23;101846.16;2091759;28;47307;-58
2021/11/11 01:16:35;;;;;;;;;68.00;55.25;;;;;9.00;60.97;101851.44;2084314;28;47331;-57
2021/11/11 01:17:36;;;;;;;;;76.00;60.00;;;;;8.99;60.86;101847.03;2084249;28;47486;-56
2021/11/11 01:18:37;;;;;;;;;77.75;60.25;;;;;8.98;61.16;101848.78;2078271;28;48140;-56
2021/11/11 01:19:37;;;;;;;;;75.50;62.00;;;;;8.98;60.90;101851.44;2082974;28;48093;-56
2021/11/11 01:20:38;;;;;;;;;74.25;59.00;;;;;8.99;61.02;101850.56;2089763;28;48184;-57
2021/11/11 01:21:39;;;;;;;;;69.75;55.75;;;;;8.99;60.96;101845.25;2085867;28;47096;-57
2021/11/11 01:22:41;;;;;;;;;77.00;61.00;;;;;8.99;60.96;101844.38;2088575;28;48374;-57
2021/11/11 01:23:42;;;;;;;;;74.75;59.25;;;;;8.97;61.25;101847.03;2085386;28;47520;-57
2021/11/11 01:24:43;;;;;;;;;73.25;57.50;;;;;8.98;61.01;101845.25;2079696;28;48606;-56
2021/11/11 01:25:43;;;;;;;;;75.25;60.00;;;;;8.97;61.04;101844.38;2074541;28;47343;-56
2021/11/11 01:26:45;;;;;;;;;74.25;58.00;;;;;8.98;61.14;101843.50;2086966;28;48070;-58
2021/11/11 01:27:46;;;;;;;;;74.60;58.80;;;;;8.97;60.91;101838.19;2091119;28;48375;-57
2021/11/11 01:28:47;;;;;;;;;73.25;58.00;;;;;8.98;61.07;101846.16;2087253;28;47329;-58
2021/11/11 01:29:47;;;;;;;;;75.50;60.00;;;;;8.96;60.96;101847.91;2076634;28;46244;-57
2021/11/11 01:30:48;;;;;;;;;78.75;64.25;;;;;8.97;61.12;101841.72;2080379;28;47018;-57
2021/11/11 01:31:49;;;;;;;;;76.75;60.50;;;;;8.97;61.04;101851.44;2090043;28;47270;-58
2021/11/11 01:32:50;;;;;;;;;72.50;58.25;;;;;8.96;61.09;101845.25;2090568;28;47006;-57
2021/11/11 01:33:50;;;;;;;;;72.00;57.25;;;;;8.94;61.16;101844.38;2079994;28;48325;-59
2021/11/11 01:34:51;;;;;;;;;74.25;60.25;;;;;8.94;60.99;101846.16;2074181;28;47439;-59
2021/11/11 01:35:51;;;;;;;;;74.00;58.00;;;;;8.94;61.01;101851.44;2081060;28;47186;-56
2021/11/11 01:36:52;;;;;;;;;74.50;58.75;;;;;8.93;61.36;101847.03;2091426;28;47129;-58
2021/11/11 01:37:52;;;;;;;;;73.25;58.25;;;;;8.92;61.42;101840.84;2078379;28;47754;-57
2021/11/11 01:38:53;;;;;;;;;73.50;58.00;;;;;8.92;60.97;101846.16;2081150;28;47376;-57
2021/11/11 01:39:54;;;;;;;;;72.75;58.50;;;;;8.91;61.17;101832.91;2083940;28;47105;-58
2021/11/11 01:40:55;;;;;;;;;68.75;55.25;;;;;8.91;61.22;101833.78;2089123;28;48556;-58
2021/11/11 01:41:55;;;;;;;;;71.25;56.75;;;;;8.90;61.21;101826.72;2089827;28;47137;-57
2021/11/11 01:42:59;;;;;;;;;71.50;56.75;;;;;8.91;61.50;101828.50;2091619;28;47345;-58
2021/11/11 01:44:00;;;;;;;;;77.50;62.00;;;;;8.90;61.30;101826.72;2086865;28;47271;-58
2021/11/11 01:45:02;;;;;;;;;70.50;57.25;;;;;8.90;61.96;101825.84;2090585;28;48020;-58
2021/11/11 01:46:02;;;;;;;;;71.25;58.50;;;;;8.91;61.27;101824.97;2074511;28;47863;-58
2021/11/11 01:47:03;;;;;;;;;74.25;59.00;;;;;8.90;61.30;101820.56;2077339;28;46556;-58
2021/11/11 01:48:06;;;;;;;;;75.75;59.75;;;;;8.89;61.45;101816.09;2075547;28;47205;-57
2021/11/11 01:49:08;;;;;;;;;70.00;55.80;;;;;8.88;61.34;101822.28;2073903;28;47318;-58
2021/11/11 01:50:10;;;;;;;;;69.00;55.75;;;;;8.87;61.28;101820.50;2079447;28;47434;-58
2021/11/11 01:51:11;;;;;;;;;71.20;56.20;;;;;8.87;61.25;101813.47;2090990;28;47618;-58
2021/11/11 01:52:13;;;;;;;;;69.00;55.25;;;;;8.88;61.32;101814.34;2089680;28;46526;-58
2021/11/11 01:53:15;;;;;;;;;75.25;59.25;;;;;8.87;61.33;101813.47;2090431;28;46614;-58
2021/11/11 01:54:17;;;;;;;;;68.00;55.20;;;;;8.88;61.40;101817.00;2089539;28;47684;-58
2021/11/11 01:55:18;;;;;;;;;72.00;55.40;;;;;8.87;61.28;101816.09;2088427;28;48611;-58
2021/11/11 01:56:20;;;;;;;;;71.75;57.25;;;;;8.89;61.36;101826.69;2084886;28;48041;-58
2021/11/11 01:57:23;;;;;;;;;73.75;59.00;;;;;8.88;61.15;101820.50;2081642;28;47547;-58
2021/11/11 01:58:23;;;;;;;;;75.20;57.60;;;;;8.89;61.42;101818.75;2078891;28;46406;-57
2021/11/11 01:59:24;;;;;;;;;71.00;57.50;;;;;8.90;61.37;101825.84;2082160;28;46623;-58
2021/11/11 02:00:30;;;;;;;;;71.50;56.75;;;;;8.88;61.34;101809.94;2079316;28;47286;-58
2021/11/11 02:01:30;;;;;;;;;69.50;56.75;;;;;8.89;61.25;101816.09;2091376;28;48085;-57
2021/11/11 02:02:31;;;;;;;;;69.00;55.75;;;;;8.88;61.20;101817.00;2089681;28;47190;-58
2021/11/11 02:03:32;;;;;;;;;72.00;56.50;;;;;8.88;61.08;101817.00;2084881;28;47331;-56
2021/11/11 02:04:32;;;;;;;;;72.75;57.00;;;;;8.88;60.90;101819.63;2087313;28;48671;-57
2021/11/11 02:05:34;;;;;;;;;73.75;58.25;;;;;8.87;60.86;101821.41;2091213;28;48306;-57
2021/11/11 02:06:35;;;;;;;;;68.60;53.20;;;;;8.86;60.86;101819.63;2085842;28;48076;-58
2021/11/11 02:07:35;;;;;;;;;71.00;57.25;;;;;8.87;60.94;101825.81;2091446;28;47612;-58
2021/11/11 02:08:36;;;;;;;;;65.00;53.50;;;;;8.85;60.89;101823.16;2087514;28;47254;-57
2021/11/11 02:09:37;;;;;;;;;69.50;56.00;;;;;8.84;60.63;101830.22;2080763;28;47426;-55
2021/11/11 02:10:38;;;;;;;;;70.00;55.25;;;;;8.84;60.53;101819.63;2079156;28;47290;-56
2021/11/11 02:11:39;;;;;;;;;74.00;59.75;;;;;8.83;60.70;101817.88;2082279;28;47301;-57
2021/11/11 02:12:39;;;;;;;;;72.75;57.25;;;;;8.81;60.58;101814.34;2078625;28;48117;-56
2021/11/11 02:13:40;;;;;;;;;74.50;58.75;;;;;8.82;60.57;101809.94;2091561;28;47163;-56
2021/11/11 02:14:41;;;;;;;;;71.00;57.25;;;;;8.81;60.66;101808.16;2086804;28;47299;-56
2021/11/11 02:15:41;;;;;;;;;71.75;57.25;;;;;8.81;60.67;101805.50;2082231;28;48879;-57
2021/11/11 02:16:42;;;;;;;;;68.25;55.25;;;;;8.81;60.72;101809.03;2078671;28;48332;-55
2021/11/11 02:17:43;;;;;;;;;72.50;57.25;;;;;8.81;60.73;101806.41;2091019;28;47093;-58
2021/11/11 02:18:44;;;;;;;;;70.00;54.40;;;;;8.80;60.54;101809.94;2089596;28;48234;-57
2021/11/11 02:19:57;;;;;;;;;72.25;57.50;;;;;8.80;60.76;101804.63;2090458;28;48012;-55
2021/11/11 02:20:59;;;;;;;;;72.40;58.60;;;;;8.80;60.59;101806.41;2087071;28;47322;-57
2021/11/11 02:22:03;;;;;;;;;74.00;61.20;;;;;8.79;60.66;101802.88;2083613;28;47516;-57
2021/11/11 02:23:10;;;;;;;;;70.00;54.80;;;;;8.78;60.51;101803.75;2089378;28;48199;-57
2021/11/11 02:24:10;;;;;;;;;71.40;57.20;;;;;8.78;60.40;101809.03;2088780;28;48232;-57
2021/11/11 02:25:13;;;;;;;;;70.50;56.75;;;;;8.77;60.30;101807.28;2083090;28;48400;-57
2021/11/11 02:26:14;;;;;;;;;75.00;59.80;;;;;8.76;60.27;101818.72;2081076;28;48374;-57
2021/11/11 02:27:14;;;;;;;;;70.25;55.75;;;;;8.74;60.40;101809.88;2084506;28;47212;-57
2021/11/11 02:28:17;;;;;;;;;71.00;57.00;;;;;8.73;60.35;101812.53;2083559;28;47881;-57
2021/11/11 02:29:18;;;;;;;;;75.50;59.75;;;;;8.74;60.60;101819.59;2089513;28;47163;-57
2021/11/11 02:30:21;;;;;;;;;35.75;30.75;;;;;8.71;60.30;101807.25;2086661;28;46056;-57
2021/11/11 02:31:22;;;;;;;;;73.25;57.50;;;;;8.69;60.32;101816.06;2090074;28;47272;-58
2021/11/11 02:32:29;;;;;;;;;75.25;58.25;;;;;8.68;60.34;101807.25;2088709;28;46645;-57
2021/11/11 02:33:30;;;;;;;;;67.20;54.60;;;;;8.67;60.32;101815.19;2090513;28;46271;-58
2021/11/11 02:34:30;;;;;;;;;71.25;57.25;;;;;8.65;60.50;101817.81;2089212;28;47449;-56
2021/11/11 02:35:31;;;;;;;;;72.00;56.50;;;;;8.64;60.36;101812.50;2089816;28;45235;-57
2021/11/11 02:36:31;;;;;;;;;72.50;57.75;;;;;8.63;60.25;101813.38;2080778;28;46418;-56
2021/11/11 02:37:32;;;;;;;;;72.25;58.00;;;;;8.61;60.44;101815.13;2081562;28;48249;-56
2021/11/11 02:38:33;;;;;;;;;68.75;52.50;;;;;8.60;60.26;101822.19;2078723;28;47421;-56
2021/11/11 02:39:37;;;;;;;;;74.00;57.25;;;;;8.59;60.47;101824.84;2073930;28;46408;-58
2021/11/11 02:40:39;;;;;;;;;70.25;56.25;;;;;8.57;60.39;101822.19;2072691;28;49308;-58
2021/11/11 02:41:45;;;;;;;;;73.00;58.50;;;;;8.57;60.56;101821.31;2082305;28;47994;-57
2021/11/11 02:42:47;;;;;;;;;73.25;59.25;;;;;8.55;60.51;101819.53;2077143;28;46173;-56
2021/11/11 02:43:47;;;;;;;;;72.75;57.50;;;;;8.54;60.60;101819.53;2074241;28;48183;-57
2021/11/11 02:44:49;;;;;;;;;71.00;57.00;;;;;8.54;60.64;101819.53;2079136;28;47545;-56
2021/11/11 02:45:50;;;;;;;;;74.80;60.20;;;;;8.53;60.54;101823.94;2082923;28;47577;-56
2021/11/11 02:46:51;;;;;;;;;72.20;58.80;;;;;8.53;60.50;101826.59;2088008;28;46104;-56
2021/11/11 02:47:53;;;;;;;;;72.50;58.00;;;;;8.54;60.51;101827.47;2085545;28;47526;-57
2021/11/11 02:48:53;;;;;;;;;71.60;57.60;;;;;8.52;60.65;101824.81;2090222;28;47306;-57
2021/11/11 02:49:54;;;;;;;;;64.50;53.25;;;;;8.53;60.24;101823.94;2083236;28;48128;-57
2021/11/11 02:50:55;;;;;;;;;71.25;57.50;;;;;8.52;60.72;101827.47;2087940;28;47583;-57
2021/11/11 02:51:55;;;;;;;;;72.00;57.25;;;;;8.52;60.44;101822.19;2074194;28;46539;-57
2021/11/11 02:52:58;;;;;;;;;75.50;60.00;;;;;8.52;60.51;101821.28;2069859;28;47239;-57
2021/11/11 02:53:58;;;;;;;;;70.00;56.50;;;;;8.52;60.50;101813.34;2074544;28;45401;-57
2021/11/11 02:54:59;;;;;;;;;71.75;57.00;;;;;8.51;60.85;101823.06;2090093;28;47240;-56
2021/11/11 02:56:00;;;;;;;;;75.75;61.25;;;;;8.50;60.39;101817.72;2086492;28;48564;-56
2021/11/11 02:57:00;;;;;;;;;68.00;54.25;;;;;8.48;60.57;101817.72;2090117;28;47052;-57
2021/11/11 02:58:02;;;;;;;;;76.25;60.50;;;;;8.48;60.36;101820.38;2089155;28;47650;-58
2021/11/11 02:59:03;;;;;;;;;74.25;58.50;;;;;8.46;60.50;101819.50;2086026;28;48245;-57
2021/11/11 03:00:20;;;;;;;;;75.75;59.00;;;;;8.45;60.36;101823.00;2080169;28;47172;-58
2021/11/11 03:01:21;;;;;;;;;71.25;58.25;;;;;8.45;60.55;101825.66;2077500;28;46276;-56
2021/11/11 03:02:33;;;;;;;;;73.25;58.75;;;;;8.45;60.74;101816.84;2084767;28;48120;-57
2021/11/11 03:03:33;;;;;;;;;76.00;60.25;;;;;8.44;60.67;101820.38;2088224;28;47321;-59
2021/11/11 03:04:36;;;;;;;;;74.75;60.50;;;;;8.43;60.67;101813.31;2086746;28;47352;-56
2021/11/11 03:05:37;;;;;;;;;72.75;58.75;;;;;8.42;60.65;101809.78;2086497;28;47347;-57
2021/11/11 03:06:39;;;;;;;;;73.60;59.00;;;;;8.43;60.63;101813.31;2087815;28;47206;-57
2021/11/11 03:07:41;;;;;;;;;76.00;60.25;;;;;8.42;60.71;101812.44;2090722;28;47386;-57
2021/11/11 03:08:43;;;;;;;;;72.75;58.50;;;;;8.42;60.57;101816.84;2088297;28;47186;-61
2021/11/11 03:09:44;;;;;;;;;70.50;56.25;;;;;8.41;60.54;101810.66;2082609;28;46695;-57
2021/11/11 03:10:45;;;;;;;;;71.25;55.00;;;;;8.41;60.64;101818.59;2087717;28;45231;-56
2021/11/11 03:11:47;;;;;;;;;72.50;59.00;;;;;8.41;60.53;101815.06;2083207;28;45348;-62
2021/11/11 03:12:50;;;;;;;;;71.00;56.20;;;;;8.40;60.76;101813.31;2089047;28;47683;-57
2021/11/11 03:13:50;;;;;;;;;72.50;59.25;;;;;8.40;60.65;101818.59;2088972;28;47345;-60
2021/11/11 03:14:53;;;;;;;;;74.50;58.50;;;;;8.40;60.64;101816.81;2089819;28;48260;-58
2021/11/11 03:15:55;;;;;;;;;77.75;58.75;;;;;8.41;60.49;101812.41;2089290;28;48136;-58
2021/11/11 03:16:56;;;;;;;;;76.50;60.75;;;;;8.41;60.66;101818.59;2090170;28;47200;-57
2021/11/11 03:17:58;;;;;;;;;73.50;60.00;;;;;8.40;60.54;101815.94;2088871;28;47062;-57
2021/11/11 03:18:58;;;;;;;;;73.20;59.00;;;;;8.40;60.77;101822.13;2087149;28;47676;-58
2021/11/11 03:19:59;;;;;;;;;70.00;56.75;;;;;8.40;60.75;101819.47;2089190;28;46261;-57
2021/11/11 03:21:00;;;;;;;;;74.50;60.25;;;;;8.40;60.71;101814.19;2087086;28;48105;-57
2021/11/11 03:22:06;;;;;;;;;76.25;59.75;;;;;8.39;60.79;101807.13;2089226;28;47213;-58
2021/11/11 03:23:07;;;;;;;;;73.00;57.25;;;;;8.38;60.79;101812.38;2081099;28;48049;-56
2021/11/11 03:24:07;;;;;;;;;72.00;57.75;;;;;8.37;60.82;101810.63;2077450;28;46283;-58
2021/11/11 03:25:09;;;;;;;;;71.25;57.50;;;;;8.38;60.80;101815.03;2089574;28;47124;-58
2021/11/11 03:26:10;;;;;;;;;73.50;59.25;;;;;8.37;60.65;101807.97;2084396;28;45714;-57
2021/11/11 03:27:11;;;;;;;;;75.75;59.00;;;;;8.36;60.68;101815.03;2089582;28;48909;-57
2021/11/11 03:28:11;;;;;;;;;71.50;59.00;;;;;8.35;60.77;101807.09;2085923;28;45069;-59
2021/11/11 03:29:12;;;;;;;;;67.75;54.75;;;;;8.34;60.91;101807.94;2088105;28;46744;-58
2021/11/11 03:30:16;;;;;;;;;71.25;56.50;;;;;8.34;60.67;101818.50;2084685;28;46147;-58
2021/11/11 03:31:16;;;;;;;;;71.25;58.75;;;;;8.32;60.89;101817.63;2084299;28;48615;-58
2021/11/11 03:32:17;;;;;;;;;75.25;59.75;;;;;8.31;61.03;101827.31;2084762;28;48083;-57
2021/11/11 03:33:18;;;;;;;;;73.40;58.60;;;;;8.31;61.00;101818.50;2077705;28;48264;-57
2021/11/11 03:34:19;;;;;;;;;75.50;59.75;;;;;8.31;61.10;101815.84;2068901;28;47133;-58
2021/11/11 03:35:20;;;;;;;;;74.25;60.75;;;;;8.30;60.82;101816.75;2080863;28;47398;-58
2021/11/11 03:36:20;;;;;;;;;77.25;61.25;;;;;8.30;60.82;101819.38;2089189;28;47012;-61
2021/11/11 03:37:24;;;;;;;;;76.50;60.75;;;;;8.30;60.97;101820.25;2087362;28;48021;-57
2021/11/11 03:38:24;;;;;;;;;69.00;56.25;;;;;8.30;60.94;101820.25;2086319;28;47447;-58
2021/11/11 03:39:25;;;;;;;;;70.75;57.50;;;;;8.31;60.97;101821.16;2083530;28;47297;-58
2021/11/11 03:40:28;;;;;;;;;74.75;59.75;;;;;8.31;61.03;101821.16;2087698;28;47168;-57
2021/11/11 03:41:29;;;;;;;;;77.00;59.75;;;;;8.31;60.93;101819.38;2090466;28;47610;-58
2021/11/11 03:42:29;;;;;;;;;70.25;57.50;;;;;8.32;60.97;101822.91;2080527;28;46421;-57
2021/11/11 03:43:30;;;;;;;;;75.50;59.25;;;;;8.31;61.05;101819.38;2070700;28;47256;-58
2021/11/11 03:44:31;;;;;;;;;72.50;58.50;;;;;8.31;61.13;101821.16;2071074;28;47706;-58
2021/11/11 03:45:31;;;;;;;;;73.75;57.50;;;;;8.31;61.13;101827.31;2072467;28;45760;-58
2021/11/11 03:46:32;;;;;;;;;71.75;57.50;;;;;8.31;61.07;101826.44;2076220;28;48564;-61
2021/11/11 03:47:32;;;;;;;;;74.50;59.25;;;;;8.31;61.14;101824.69;2089267;28;47072;-57
2021/11/11 03:48:33;;;;;;;;;70.25;57.50;;;;;8.32;61.31;101825.56;2086627;28;47379;-56
2021/11/11 03:49:34;;;;;;;;;70.00;56.50;;;;;8.33;61.18;101827.31;2086640;28;47415;-57
2021/11/11 03:50:35;;;;;;;;;74.25;59.50;;;;;8.33;61.12;101833.50;2088284;28;47554;-58
2021/11/11 03:51:35;;;;;;;;;74.00;60.75;;;;;8.34;60.84;101824.72;2084418;28;47490;-57
2021/11/11 03:52:37;;;;;;;;;70.50;57.25;;;;;8.33;60.93;101825.56;2080297;28;47399;-57
2021/11/11 03:53:38;;;;;;;;;69.50;55.25;;;;;8.34;61.03;101827.34;2077773;28;45255;-57
2021/11/11 03:54:39;;;;;;;;;75.00;59.25;;;;;8.35;60.95;101830.88;2088121;28;48378;-57
2021/11/11 03:55:39;;;;;;;;;74.00;59.75;;;;;8.35;60.86;101826.47;2090429;28;47696;-57
2021/11/11 03:56:42;;;;;;;;;71.75;57.00;;;;;8.36;60.80;101827.38;2087800;28;47468;-56
2021/11/11 03:57:43;;;;;;;;;70.60;55.60;;;;;8.35;61.18;101831.78;2081830;28;45277;-57
2021/11/11 03:58:45;;;;;;;;;69.00;56.75;;;;;8.35;60.77;101829.13;2079092;28;48213;-56
2021/11/11 03:59:45;;;;;;;;;70.00;57.20;;;;;8.36;60.87;101828.25;2084823;28;46253;-56
2021/11/11 04:00:46;;;;;;;;;71.25;58.25;;;;;8.36;60.83;101833.53;2088181;28;47201;-56
2021/11/11 04:01:47;;;;;;;;;75.00;58.75;;;;;8.36;60.79;101830.00;2088793;28;47151;-58
2021/11/11 04:02:48;;;;;;;;;72.75;58.25;;;;;8.35;60.75;101825.59;2086772;28;47520;-57
2021/11/11 04:03:49;;;;;;;;;71.75;57.75;;;;;8.35;60.58;101820.31;2087400;28;47333;-57
2021/11/11 04:04:53;;;;;;;;;68.00;54.75;;;;;8.35;60.62;101821.19;2080578;28;47063;-57
2021/11/11 04:05:54;;;;;;;;;73.00;57.60;;;;;8.35;60.49;101825.59;2080353;28;48215;-58
2021/11/11 04:06:54;;;;;;;;;70.25;57.25;;;;;8.34;60.48;101823.81;2087143;28;48270;-57
2021/11/11 04:07:55;;;;;;;;;69.50;56.50;;;;;8.33;60.58;101816.75;2085777;28;47414;-57
2021/11/11 04:08:55;;;;;;;;;69.75;56.75;;;;;8.34;60.46;101818.50;2089791;28;47252;-54
2021/11/11 04:09:56;;;;;;;;;70.25;55.00;;;;;8.32;60.59;101822.91;2083911;28;47279;-56
2021/11/11 04:10:57;;;;;;;;;69.50;54.50;;;;;8.31;60.43;101819.38;2078282;28;46901;-58
2021/11/11 04:11:58;;;;;;;;;65.00;53.20;;;;;8.30;60.73;101822.91;2071988;28;48573;-59
2021/11/11 04:13:01;;;;;;;;;68.40;55.00;;;;;8.30;60.68;101828.19;2077158;28;47131;-59
2021/11/11 04:14:03;;;;;;;;;72.40;57.00;;;;;8.30;60.75;101827.31;2080284;28;47524;-57
2021/11/11 04:15:05;;;;;;;;;69.40;56.00;;;;;8.30;60.58;101829.97;2077479;28;48413;-61
2021/11/11 04:16:06;;;;;;;;;69.00;54.80;;;;;8.29;60.82;101830.84;2076728;28;47399;-54
2021/11/11 04:17:07;;;;;;;;;66.75;54.50;;;;;8.29;60.51;101829.06;2072542;28;45183;-57
2021/11/11 04:18:07;;;;;;;;;67.50;54.50;;;;;8.29;60.78;101823.78;2074796;28;47195;-58
2021/11/11 04:19:08;;;;;;;;;63.50;52.00;;;;;8.29;60.77;101831.72;2078040;28;48464;-65
2021/11/11 04:20:10;;;;;;;;;69.50;54.25;;;;;8.29;60.63;101830.84;2076625;28;48368;-57
2021/11/11 04:21:11;;;;;;;;;66.60;54.00;;;;;8.27;60.79;101831.72;2087271;28;47955;-57
2021/11/11 04:22:13;;;;;;;;;66.00;54.25;;;;;8.26;60.33;101829.94;2088120;28;47132;-57
2021/11/11 04:23:14;;;;;;;;;69.40;54.80;;;;;8.26;60.36;101831.72;2087077;28;47656;-57
2021/11/11 04:24:14;;;;;;;;;71.00;55.25;;;;;8.25;60.52;101844.03;2087355;28;47001;-56
2021/11/11 04:25:34;;;;;;;;;69.25;55.50;;;;;8.25;60.55;101840.50;2085387;28;48100;-58
2021/11/11 04:26:41;;;;;;;;;68.00;54.60;;;;;8.25;60.50;101846.66;2088107;28;47477;-58
2021/11/11 04:28:03;;;;;;;;;70.20;54.80;;;;;8.26;60.37;101852.88;2078225;28;48327;-57
2021/11/11 04:29:09;;;;;;;;;65.80;54.40;;;;;8.24;60.19;101860.75;2082443;28;47032;-57
2021/11/11 04:30:19;;;;;;;;;71.40;55.20;;;;;8.25;60.38;101856.34;2084619;28;47331;-56
2021/11/11 04:31:26;;;;;;;;;71.00;57.20;;;;;8.24;60.29;101860.75;2085892;28;47619;-58
2021/11/11 04:32:27;;;;;;;;;67.60;55.00;;;;;8.23;60.22;101861.63;2086052;28;47475;-58
2021/11/11 04:33:29;;;;;;;;;70.50;56.25;;;;;8.22;60.26;101861.63;2082348;28;47573;-57
2021/11/11 04:34:32;;;;;;;;;67.60;54.80;;;;;8.20;60.12;101860.75;2086216;28;45168;-58
2021/11/11 04:35:33;;;;;;;;;70.80;55.40;;;;;8.19;60.11;101853.69;2082040;28;48494;-57
2021/11/11 04:48:39;;;;;;;;;72.00;57.00;;;;;8.06;60.15;101860.66;2085633;28;47737;-58
2021/11/11 04:52:12;;;;;;;;;65.20;53.00;;;;;8.04;59.60;101873.00;2083124;28;48357;-56
2021/11/11 05:04:15;;;;;;;;;69.00;54.40;;;;;7.84;60.15;101874.59;2087194;28;47125;-57
2021/11/11 05:05:15;;;;;;;;;63.80;52.60;;;;;7.82;59.84;101869.28;2084014;28;47287;-57
2021/11/11 05:06:17;;;;;;;;;66.50;54.00;;;;;7.81;59.85;101864.00;2086374;28;47672;-58
2021/11/11 05:07:18;;;;;;;;;66.40;53.40;;;;;7.80;60.21;101871.03;2091779;28;47557;-57
2021/11/11 05:08:18;;;;;;;;;63.00;51.75;;;;;7.78;59.96;101871.91;2086451;28;48008;-57